Главная страница
METAR-TAF:

METAR-TAF

Аэропорты :

Penn Yan Airport

Penn Yan, Нью-Йорк, США

широта: 42-38-35N, долгота: 077-02-58W, высота над уровнем моря: 275 м

Текущие метеонаблюдения

Эта сводка был подготовлена 27 минут назад, в 11:53 UTC
Ветер 7 Узел от южный-юго-западный
Температура 14°C
Влажность 94%
Давление 1015 hPa
Видимость: 16.1 км
ясное небо

METAR: KPEO 241153Z AUTO 21007KT 10SM CLR 14/13 A2998 RMK AO2 SLP149 T01390128 10172 20128 51005

Время: 08:20 (12:20 UTC)


TAF: отсутствует

Метеонаблюдения и прогнозы для более 4000 аэропортов (сводки METAR и TAF).

Имеющиеся станции представлены на карте желтыми и красными точками.

Чтобы увидеть название станции, наведите на нее мышь.

Затем щелкните, чтобы увидеть метеонаблюдения и метеопрогнозы.

Управление картой: чтобы увеличить масштаб, щелкните зеленые кнопки с черным крестиком; чтобы уменьшить масштаб, щелкните зеленую кнопку с тире; для просмотра соседних карт щелкайте зеленые стрелки.


METAR-TAF: